Time;durP1;ratioP1;P1;durP2;ratioP2;P2;SDS_P1;SDS_P2;PMS_P1;PMS_P2;Temp;Humidity;BMP_temperature;BMP_pressure;BME280_temperature;BME280_humidity;BME280_pressure;Samples;Min_cycle;Max_cycle;Signal;HPM_P1;HPM_P2
2022/03/10 00:01:27;;;;;;;;;;;1.10;78.00;;;;;;5049229;28;19999;-73
2022/03/10 00:03:52;;;;;;;;;;;1.00;77.70;;;;;;5083840;28;20226;-73
2022/03/10 00:06:18;;;;;;;;;;;1.00;77.70;;;;;;5083682;28;19908;-72
2022/03/10 00:08:44;;;;;;;;;;;1.00;77.60;;;;;;5083306;28;19909;-72
2022/03/10 00:11:10;;;;;;;;;;;1.10;77.50;;;;;;5086514;28;19923;-71
2022/03/10 00:13:35;;;;;;;;;;;1.10;78.10;;;;;;5083612;28;19908;-72
2022/03/10 00:16:01;;;;;;;;;;;1.10;77.60;;;;;;5083522;28;19913;-71
2022/03/10 00:18:27;;;;;;;;;;;1.10;77.50;;;;;;5083380;28;19908;-71
2022/03/10 00:20:52;;;;;;;;;;;1.10;77.90;;;;;;5065278;28;19916;-72
2022/03/10 00:23:18;;;;;;;;;;;1.10;77.90;;;;;;5064769;28;19908;-72
2022/03/10 00:25:44;;;;;;;;;;;1.00;78.10;;;;;;5083199;28;19915;-72
2022/03/10 00:28:10;;;;;;;;;;;1.00;78.50;;;;;;5083269;28;19975;-72
2022/03/10 00:30:35;;;;;;;;;;;0.90;79.60;;;;;;5083007;28;19909;-72
2022/03/10 00:33:01;;;;;;;;;;;0.90;79.30;;;;;;5083202;28;19975;-71
2022/03/10 00:35:27;;;;;;;;;;;0.90;79.10;;;;;;5083207;28;20432;-71
2022/03/10 00:37:53;;;;;;;;;;;0.90;79.00;;;;;;5082930;28;19920;-71
2022/03/10 00:40:19;;;;;;;;;;;0.80;78.90;;;;;;5082705;28;19936;-71
2022/03/10 00:42:45;;;;;;;;;;;0.80;78.70;;;;;;5064876;28;19912;-71
2022/03/10 00:45:11;;;;;;;;;;;0.80;79.10;;;;;;5091691;28;19923;-72
2022/03/10 00:47:37;;;;;;;;;;;0.70;79.30;;;;;;5102855;28;20180;-72
2022/03/10 00:50:03;;;;;;;;;;;0.80;79.10;;;;;;5068349;28;19957;-73
2022/03/10 00:52:29;;;;;;;;;;;0.80;79.20;;;;;;5084841;28;19931;-73
2022/03/10 00:54:54;;;;;;;;;;;0.80;79.10;;;;;;5066569;28;19912;-74
2022/03/10 00:57:20;;;;;;;;;;;0.80;79.30;;;;;;5064863;28;19908;-74
2022/03/10 00:59:46;;;;;;;;;;;0.70;79.60;;;;;;5082637;28;19908;-72
2022/03/10 01:02:12;;;;;;;;;;;0.80;79.60;;;;;;5082342;28;19923;-71
2022/03/10 01:04:37;;;;;;;;;;;0.80;80.00;;;;;;5064301;28;20350;-72
2022/03/10 01:07:03;;;;;;;;;;;0.80;79.90;;;;;;5063450;28;19919;-72
2022/03/10 01:09:29;;;;;;;;;;;0.70;79.90;;;;;;5081331;28;20704;-71
2022/03/10 01:11:54;;;;;;;;;;;0.70;79.80;;;;;;5063362;28;19909;-72
2022/03/10 01:14:20;;;;;;;;;;;0.70;79.90;;;;;;5081702;28;19912;-71
2022/03/10 01:16:46;;;;;;;;;;;0.70;80.00;;;;;;5063448;28;19915;-73
2022/03/10 01:19:12;;;;;;;;;;;0.70;80.00;;;;;;5081577;28;19917;-73
2022/03/10 01:21:37;;;;;;;;;;;0.60;80.50;;;;;;5063235;28;19917;-71
2022/03/10 01:24:03;;;;;;;;;;;0.60;80.60;;;;;;5080629;28;19909;-71
2022/03/10 01:26:29;;;;;;;;;;;0.60;80.70;;;;;;5081570;28;19936;-70
2022/03/10 01:28:55;;;;;;;;;;;0.50;80.70;;;;;;5081241;28;19915;-70
2022/03/10 01:31:20;;;;;;;;;;;0.50;81.10;;;;;;5081027;28;19994;-73
2022/03/10 01:33:46;;;;;;;;;;;0.40;81.40;;;;;;5081252;28;19908;-73
2022/03/10 01:36:11;;;;;;;;;;;0.40;81.30;;;;;;5081244;28;19934;-70
2022/03/10 01:38:39;;;;;;;;;;;0.40;81.40;;;;;;5080896;28;19920;-71
2022/03/10 01:41:06;;;;;;;;;;;0.20;81.70;;;;;;5081043;28;19909;-70
2022/03/10 01:43:31;;;;;;;;;;;0.30;81.60;;;;;;5081218;28;19916;-71
2022/03/10 01:45:57;;;;;;;;;;;0.30;81.70;;;;;;5068794;28;19920;-68
2022/03/10 01:48:23;;;;;;;;;;;0.20;82.10;;;;;;5078619;28;19946;-72
2022/03/10 01:50:49;;;;;;;;;;;0.20;82.00;;;;;;5082908;28;20137;-71
2022/03/10 01:53:15;;;;;;;;;;;0.10;82.20;;;;;;5097870;28;19931;-69
2022/03/10 01:55:40;;;;;;;;;;;0.10;82.30;;;;;;5080848;28;19912;-69
2022/03/10 01:58:06;;;;;;;;;;;0.00;82.50;;;;;;5046422;28;19908;-70
2022/03/10 02:00:32;;;;;;;;;;;0.00;82.90;;;;;;5082915;28;19938;-69
2022/03/10 02:02:57;;;;;;;;;;;0.00;82.90;;;;;;5084740;28;19924;-69
2022/03/10 02:05:23;;;;;;;;;;;-0.20;83.40;;;;;;5084644;28;19908;-70
2022/03/10 02:10:34;;;;;;;;;;;-0.20;83.10;;;;;;5069177;28;19924;-70
2022/03/10 02:13:00;;;;;;;;;;;-0.20;83.50;;;;;;5084635;28;19912;-69
2022/03/10 02:18:11;;;;;;;;;;;-0.20;83.80;;;;;;5069311;28;19915;-70
2022/03/10 02:20:38;;;;;;;;;;;-0.30;83.80;;;;;;5084264;28;20127;-70
2022/03/10 02:23:04;;;;;;;;;;;-0.30;83.90;;;;;;5084497;28;19908;-72
2022/03/10 02:25:30;;;;;;;;;;;-0.30;83.90;;;;;;5066500;28;19939;-71
2022/03/10 02:27:56;;;;;;;;;;;-0.30;84.20;;;;;;5066389;28;20199;-72
2022/03/10 02:30:23;;;;;;;;;;;-0.30;84.20;;;;;;5066441;28;19908;-72
2022/03/10 02:32:49;;;;;;;;;;;-0.40;84.10;;;;;;5066302;28;20099;-70
2022/03/10 02:35:14;;;;;;;;;;;-0.30;84.00;;;;;;5084265;28;19939;-70
2022/03/10 02:37:40;;;;;;;;;;;-0.40;84.20;;;;;;5076538;22;19982;-66
2022/03/10 02:40:06;;;;;;;;;;;-0.30;85.20;;;;;;5061103;28;20081;-66
2022/03/10 02:42:32;;;;;;;;;;;-0.30;85.80;;;;;;5064807;28;19931;-66
2022/03/10 02:44:58;;;;;;;;;;;-0.30;86.10;;;;;;5064843;28;19921;-67
2022/03/10 02:47:24;;;;;;;;;;;-0.40;87.00;;;;;;5064763;28;20108;-66
2022/03/10 02:49:49;;;;;;;;;;;-0.40;86.80;;;;;;5063730;28;19916;-66
2022/03/10 02:52:15;;;;;;;;;;;-0.30;85.80;;;;;;5064380;28;20203;-66
2022/03/10 02:54:41;;;;;;;;;;;-0.30;85.00;;;;;;5064610;28;19951;-66
2022/03/10 02:57:07;;;;;;;;;;;-0.30;84.80;;;;;;5063591;28;20151;-66
2022/03/10 02:59:32;;;;;;;;;;;-0.40;84.60;;;;;;5064582;28;19909;-67
2022/03/10 03:01:58;;;;;;;;;;;-0.40;84.50;;;;;;5064251;28;19984;-67
2022/03/10 03:04:25;;;;;;;;;;;-0.40;84.90;;;;;;5064502;28;19940;-67
2022/03/10 03:06:51;;;;;;;;;;;-0.40;84.80;;;;;;5046628;28;19913;-66
2022/03/10 03:09:16;;;;;;;;;;;-0.40;85.10;;;;;;5064555;28;19909;-66
2022/03/10 03:11:42;;;;;;;;;;;-0.40;85.10;;;;;;5064179;28;19916;-66
2022/03/10 03:14:08;;;;;;;;;;;-0.40;85.10;;;;;;5046672;28;19948;-66
2022/03/10 03:16:34;;;;;;;;;;;-0.50;85.40;;;;;;5064204;28;19955;-66
2022/03/10 03:19:00;;;;;;;;;;;-0.50;85.60;;;;;;5064355;28;19915;-66
2022/03/10 03:21:25;;;;;;;;;;;-0.60;85.90;;;;;;5060874;28;19916;-66
2022/03/10 03:23:51;;;;;;;;;;;-0.60;85.90;;;;;;5063994;28;19931;-67
2022/03/10 03:26:17;;;;;;;;;;;-0.50;86.30;;;;;;5064160;28;19932;-67
2022/03/10 03:28:43;;;;;;;;;;;-0.50;87.00;;;;;;5064085;28;19909;-67
2022/03/10 03:31:09;;;;;;;;;;;-0.40;87.30;;;;;;5063778;28;19917;-67
2022/03/10 03:33:36;;;;;;;;;;;-0.40;87.70;;;;;;5062897;28;19932;-67
2022/03/10 03:36:01;;;;;;;;;;;-0.40;89.00;;;;;;5063760;28;19954;-67
2022/03/10 03:38:27;;;;;;;;;;;-0.50;89.70;;;;;;5063539;28;19983;-67
2022/03/10 03:40:53;;;;;;;;;;;-0.50;89.70;;;;;;5063683;28;19921;-67
2022/03/10 03:43:18;;;;;;;;;;;-0.60;90.20;;;;;;5063764;28;20271;-67
2022/03/10 03:45:44;;;;;;;;;;;-0.60;90.50;;;;;;5063808;28;19916;-67
2022/03/10 03:48:10;;;;;;;;;;;-0.70;90.50;;;;;;5063711;28;20081;-67
2022/03/10 03:50:35;;;;;;;;;;;-0.70;90.60;;;;;;5063593;28;19947;-68
2022/03/10 03:53:01;;;;;;;;;;;-0.70;90.50;;;;;;5063444;28;20089;-68
2022/03/10 03:55:27;;;;;;;;;;;-0.80;91.00;;;;;;5063125;28;19917;-67
2022/03/10 03:57:53;;;;;;;;;;;-0.80;91.10;;;;;;5062380;28;20423;-67
2022/03/10 04:00:19;;;;;;;;;;;-0.80;91.30;;;;;;5063364;28;19917;-68
2022/03/10 04:02:45;;;;;;;;;;;-0.90;91.40;;;;;;5063306;28;20119;-68
2022/03/10 04:05:11;;;;;;;;;;;-0.90;91.40;;;;;;5062288;28;20326;-67
2022/03/10 04:07:36;;;;;;;;;;;-1.00;91.40;;;;;;5063058;28;19913;-68
2022/03/10 04:10:07;;;;;;;;;;;-1.00;91.40;;;;;;5063308;28;19909;-67
2022/03/10 04:12:33;;;;;;;;;;;-1.00;91.20;;;;;;5028655;28;19950;-67
2022/03/10 04:14:59;;;;;;;;;;;-1.00;91.20;;;;;;5045511;28;20170;-67
2022/03/10 04:17:25;;;;;;;;;;;-1.00;91.00;;;;;;5063308;28;20300;-68
2022/03/10 04:19:51;;;;;;;;;;;-1.00;90.90;;;;;;5062642;28;19909;-68
2022/03/10 04:22:16;;;;;;;;;;;-1.00;90.80;;;;;;5062247;28;19908;-68
2022/03/10 04:24:42;;;;;;;;;;;-1.10;90.80;;;;;;5063077;28;19909;-68
2022/03/10 04:27:08;;;;;;;;;;;-1.10;90.90;;;;;;5062966;28;20215;-68
2022/03/10 04:29:34;;;;;;;;;;;-1.20;91.20;;;;;;5062953;28;19921;-67
2022/03/10 04:31:59;;;;;;;;;;;-1.20;91.40;;;;;;5062657;28;19909;-68
2022/03/10 04:34:25;;;;;;;;;;;-1.20;91.50;;;;;;5062700;28;19952;-68
2022/03/10 04:36:51;;;;;;;;;;;-1.20;91.70;;;;;;5044568;28;19919;-68
2022/03/10 04:39:16;;;;;;;;;;;-1.10;91.60;;;;;;5062577;28;19971;-68
2022/03/10 04:41:43;;;;;;;;;;;-1.10;91.60;;;;;;5062234;28;19912;-68
2022/03/10 04:44:10;;;;;;;;;;;-1.10;91.60;;;;;;5062688;28;20274;-68
2022/03/10 04:46:36;;;;;;;;;;;-1.10;91.60;;;;;;5045092;28;20200;-67
2022/03/10 04:49:02;;;;;;;;;;;-1.10;91.60;;;;;;5061389;28;19977;-67
2022/03/10 04:51:28;;;;;;;;;;;-1.00;91.60;;;;;;5062288;28;20238;-67
2022/03/10 04:53:54;;;;;;;;;;;-0.90;91.40;;;;;;5062330;28;19909;-68
2022/03/10 04:56:20;;;;;;;;;;;-1.00;91.60;;;;;;5062483;28;19958;-67
2022/03/10 04:58:45;;;;;;;;;;;-1.10;91.70;;;;;;5062351;28;19976;-68
2022/03/10 05:01:12;;;;;;;;;;;-1.20;91.60;;;;;;5062043;28;19909;-68
2022/03/10 05:03:38;;;;;;;;;;;-1.10;91.10;;;;;;5061214;28;19915;-67
2022/03/10 05:06:04;;;;;;;;;;;-1.10;90.90;;;;;;5061958;28;19925;-69
2022/03/10 05:08:29;;;;;;;;;;;-1.20;91.00;;;;;;5061801;28;20132;-69
2022/03/10 05:10:55;;;;;;;;;;;-1.10;90.90;;;;;;5061874;28;19948;-69
2022/03/10 05:13:21;;;;;;;;;;;-1.10;90.90;;;;;;5062016;28;19909;-69
2022/03/10 05:15:47;;;;;;;;;;;-1.10;90.80;;;;;;5062096;28;19976;-68
2022/03/10 05:18:13;;;;;;;;;;;-1.30;90.90;;;;;;5061737;28;20200;-68
2022/03/10 05:20:38;;;;;;;;;;;-1.30;91.00;;;;;;5061464;28;19945;-68
2022/03/10 05:23:04;;;;;;;;;;;-1.30;91.00;;;;;;5060883;28;19979;-68
2022/03/10 05:25:34;;;;;;;;;;;-1.30;91.00;;;;;;5060957;28;19913;-67
2022/03/10 05:28:00;;;;;;;;;;;-1.40;91.10;;;;;;5060873;28;19909;-67
2022/03/10 05:30:26;;;;;;;;;;;-1.40;91.20;;;;;;5060918;28;20101;-68
2022/03/10 05:32:51;;;;;;;;;;;-1.40;91.20;;;;;;5061791;28;20107;-66
2022/03/10 05:35:17;;;;;;;;;;;-1.50;91.10;;;;;;5063722;28;19913;-67
2022/03/10 05:37:44;;;;;;;;;;;-1.40;91.20;;;;;;5065666;28;19927;-66
2022/03/10 05:40:12;;;;;;;;;;;-1.40;91.10;;;;;;5066673;28;19912;-66
2022/03/10 05:42:38;;;;;;;;;;;-1.40;91.00;;;;;;5066100;28;20261;-66
2022/03/10 05:45:05;;;;;;;;;;;-1.30;90.90;;;;;;5066079;28;19920;-67
2022/03/10 05:47:30;;;;;;;;;;;-1.30;90.60;;;;;;5066184;28;19963;-67
2022/03/10 05:49:56;;;;;;;;;;;-1.30;90.50;;;;;;5065870;28;20196;-66
2022/03/10 05:52:22;;;;;;;;;;;-1.20;90.60;;;;;;5065725;28;19908;-66
2022/03/10 05:54:47;;;;;;;;;;;-1.30;90.60;;;;;;5065610;28;19927;-66
2022/03/10 05:57:14;;;;;;;;;;;-1.20;90.40;;;;;;5065536;28;19923;-66
2022/03/10 05:59:39;;;;;;;;;;;-1.20;90.20;;;;;;5065942;28;19915;-66
2022/03/10 06:02:05;;;;;;;;;;;-1.20;90.20;;;;;;5065365;28;19908;-66
2022/03/10 06:04:31;;;;;;;;;;;-1.20;90.00;;;;;;5065732;28;19936;-64
2022/03/10 06:06:56;;;;;;;;;;;-1.20;90.00;;;;;;5065197;28;19919;-66
2022/03/10 06:09:22;;;;;;;;;;;-1.20;90.10;;;;;;5064848;28;19913;-67
2022/03/10 06:11:48;;;;;;;;;;;-1.40;90.50;;;;;;5045117;28;19924;-66
2022/03/10 06:14:13;;;;;;;;;;;-1.40;90.60;;;;;;5045230;28;19948;-66
2022/03/10 06:16:40;;;;;;;;;;;-1.40;90.70;;;;;;5054141;28;20203;-67
2022/03/10 06:19:06;;;;;;;;;;;-1.40;90.70;;;;;;5058280;28;19913;-66
2022/03/10 06:21:33;;;;;;;;;;;-1.40;90.60;;;;;;5059139;28;19919;-66
2022/03/10 06:23:59;;;;;;;;;;;-1.40;90.70;;;;;;5064729;28;20019;-66
2022/03/10 06:26:24;;;;;;;;;;;-1.40;90.70;;;;;;5063902;28;20104;-66
2022/03/10 06:28:50;;;;;;;;;;;-1.40;90.70;;;;;;5064886;28;19913;-66
2022/03/10 06:31:16;;;;;;;;;;;-1.30;90.60;;;;;;5064482;28;19913;-66
2022/03/10 06:33:41;;;;;;;;;;;-1.30;90.50;;;;;;5064121;28;19940;-66
2022/03/10 06:36:07;;;;;;;;;;;-1.20;90.60;;;;;;5064713;28;19916;-67
2022/03/10 06:38:33;;;;;;;;;;;-1.20;90.60;;;;;;5064717;28;19921;-66
2022/03/10 06:40:59;;;;;;;;;;;-1.20;90.40;;;;;;5064036;28;19912;-66
2022/03/10 06:43:25;;;;;;;;;;;-1.00;90.10;;;;;;5065008;28;19916;-66
2022/03/10 06:45:50;;;;;;;;;;;-0.80;89.70;;;;;;5064327;28;19909;-66
2022/03/10 06:48:16;;;;;;;;;;;-0.70;88.90;;;;;;5058856;28;19925;-66
2022/03/10 06:50:42;;;;;;;;;;;-0.60;88.20;;;;;;5062141;28;19972;-65
2022/03/10 06:53:08;;;;;;;;;;;-0.50;88.00;;;;;;5064511;28;19921;-66
2022/03/10 06:55:33;;;;;;;;;;;-0.50;87.90;;;;;;5064123;28;19920;-67
2022/03/10 06:57:59;;;;;;;;;;;-0.40;87.60;;;;;;5064257;28;20107;-67
2022/03/10 07:00:25;;;;;;;;;;;-0.40;87.60;;;;;;5060268;28;20180;-66
2022/03/10 07:02:53;;;;;;;;;;;-0.30;87.30;;;;;;5061079;28;19940;-66
2022/03/10 07:05:19;;;;;;;;;;;-0.10;87.20;;;;;;5063285;28;19908;-66
2022/03/10 07:07:45;;;;;;;;;;;0.00;86.00;;;;;;5063501;28;19909;-66
2022/03/10 07:10:12;;;;;;;;;;;0.00;86.20;;;;;;5062636;28;19959;-66
2022/03/10 07:12:41;;;;;;;;;;;0.00;86.30;;;;;;5063116;28;19940;-66
2022/03/10 07:15:08;;;;;;;;;;;0.10;86.30;;;;;;5063096;28;20338;-66
2022/03/10 07:17:34;;;;;;;;;;;0.20;85.80;;;;;;5062922;28;19909;-66
2022/03/10 07:20:00;;;;;;;;;;;0.30;85.60;;;;;;5063097;28;20007;-66
2022/03/10 07:22:26;;;;;;;;;;;0.40;85.30;;;;;;5062977;28;19908;-66
2022/03/10 07:24:51;;;;;;;;;;;0.50;87.00;;;;;;5062457;28;20107;-66
2022/03/10 07:27:17;;;;;;;;;;;0.50;87.80;;;;;;5062903;28;19970;-66
2022/03/10 07:29:43;;;;;;;;;;;0.50;88.30;;;;;;5062834;28;19916;-66
2022/03/10 07:32:08;;;;;;;;;;;0.50;88.20;;;;;;5062530;28;20084;-66
2022/03/10 07:34:34;;;;;;;;;;;0.60;88.10;;;;;;5044626;28;19955;-66
2022/03/10 07:37:00;;;;;;;;;;;0.60;87.80;;;;;;5062464;28;19919;-66
2022/03/10 07:39:26;;;;;;;;;;;0.70;87.90;;;;;;5062590;28;20123;-66
2022/03/10 07:41:51;;;;;;;;;;;0.70;87.20;;;;;;5062337;28;19916;-66
2022/03/10 07:44:17;;;;;;;;;;;0.70;87.00;;;;;;5062585;28;19959;-66
2022/03/10 07:46:43;;;;;;;;;;;0.90;87.10;;;;;;5062757;28;20019;-66
2022/03/10 07:49:11;;;;;;;;;;;0.90;86.90;;;;;;5062413;28;19952;-66
2022/03/10 07:51:37;;;;;;;;;;;1.00;86.60;;;;;;5062427;28;19908;-66
2022/03/10 07:54:03;;;;;;;;;;;1.10;86.30;;;;;;5062350;28;19916;-66
2022/03/10 07:56:28;;;;;;;;;;;1.20;85.80;;;;;;5062288;28;19921;-66
2022/03/10 07:58:54;;;;;;;;;;;1.30;85.40;;;;;;5061946;28;20147;-67
2022/03/10 08:01:20;;;;;;;;;;;1.40;84.90;;;;;;5062408;28;19983;-66
2022/03/10 08:03:48;;;;;;;;;;;1.50;84.20;;;;;;5062287;28;19908;-66
2022/03/10 08:06:14;;;;;;;;;;;1.60;83.60;;;;;;5062679;28;19916;-67
2022/03/10 08:08:39;;;;;;;;;;;1.70;83.60;;;;;;5062171;28;19931;-67
2022/03/10 08:11:05;;;;;;;;;;;1.70;83.60;;;;;;5062068;28;19908;-67
2022/03/10 08:13:31;;;;;;;;;;;1.80;83.20;;;;;;5062325;28;20019;-66
2022/03/10 08:15:57;;;;;;;;;;;2.00;83.20;;;;;;5044504;28;19916;-66
2022/03/10 08:18:23;;;;;;;;;;;2.10;83.00;;;;;;5062213;28;19917;-67
2022/03/10 08:20:49;;;;;;;;;;;2.20;82.70;;;;;;5062011;28;20250;-67
2022/03/10 08:23:17;;;;;;;;;;;2.20;82.30;;;;;;5061962;28;19916;-66
2022/03/10 08:25:43;;;;;;;;;;;2.30;81.70;;;;;;5061440;28;19932;-67
2022/03/10 08:28:08;;;;;;;;;;;2.50;81.60;;;;;;5062071;28;19924;-67
2022/03/10 08:30:34;;;;;;;;;;;2.60;81.60;;;;;;5043956;28;20112;-68
2022/03/10 08:33:00;;;;;;;;;;;2.70;81.20;;;;;;5048582;28;19916;-68
2022/03/10 08:35:26;;;;;;;;;;;2.80;80.40;;;;;;5059391;28;19913;-66
2022/03/10 08:37:52;;;;;;;;;;;2.90;79.80;;;;;;5061771;28;19921;-65
2022/03/10 08:40:19;;;;;;;;;;;3.10;79.20;;;;;;5061282;28;19947;-65
2022/03/10 08:42:45;;;;;;;;;;;3.10;78.60;;;;;;5044280;28;19915;-65
2022/03/10 08:45:11;;;;;;;;;;;3.40;77.10;;;;;;5061972;28;19976;-66
2022/03/10 08:47:37;;;;;;;;;;;3.70;75.90;;;;;;5061615;28;19916;-65
2022/03/10 08:50:03;;;;;;;;;;;3.70;75.10;;;;;;5061779;28;19916;-65
2022/03/10 08:52:29;;;;;;;;;;;3.80;75.70;;;;;;5061093;28;20265;-65
2022/03/10 08:54:54;;;;;;;;;;;3.90;74.60;;;;;;5061396;28;19943;-66
2022/03/10 08:57:20;;;;;;;;;;;4.00;73.70;;;;;;5061349;28;20204;-66
2022/03/10 08:59:46;;;;;;;;;;;4.30;72.30;;;;;;5061409;28;19909;-66
2022/03/10 09:02:12;;;;;;;;;;;4.30;72.60;;;;;;5060444;28;20208;-67
2022/03/10 09:04:38;;;;;;;;;;;4.40;72.30;;;;;;5060767;28;19909;-66
2022/03/10 09:07:04;;;;;;;;;;;4.40;72.00;;;;;;5061124;28;20142;-66
2022/03/10 09:09:30;;;;;;;;;;;4.50;71.60;;;;;;5060721;28;19909;-65
2022/03/10 09:11:56;;;;;;;;;;;4.60;71.40;;;;;;5060982;28;19909;-65
2022/03/10 09:14:22;;;;;;;;;;;4.80;70.70;;;;;;5061041;28;19940;-64
2022/03/10 09:16:48;;;;;;;;;;;5.00;70.10;;;;;;5060814;28;19917;-65
2022/03/10 09:19:13;;;;;;;;;;;5.20;69.70;;;;;;5061097;28;19917;-63
2022/03/10 09:21:39;;;;;;;;;;;5.40;69.60;;;;;;5060206;28;19909;-64
2022/03/10 09:24:05;;;;;;;;;;;5.50;68.30;;;;;;5061177;28;19909;-66
2022/03/10 09:26:31;;;;;;;;;;;5.60;68.40;;;;;;5060814;28;19928;-67
2022/03/10 09:28:56;;;;;;;;;;;5.70;66.90;;;;;;5061018;28;20113;-64
2022/03/10 09:31:22;;;;;;;;;;;5.80;66.30;;;;;;5060661;28;19947;-64
2022/03/10 09:33:48;;;;;;;;;;;6.00;65.00;;;;;;5060176;28;19920;-64
2022/03/10 09:36:14;;;;;;;;;;;6.10;65.20;;;;;;5060886;28;19925;-64
2022/03/10 09:38:40;;;;;;;;;;;6.10;65.10;;;;;;5060788;28;19943;-64
2022/03/10 09:41:06;;;;;;;;;;;6.20;64.20;;;;;;5060212;28;19909;-64
2022/03/10 09:43:33;;;;;;;;;;;6.40;62.40;;;;;;5061027;28;19916;-64
2022/03/10 09:45:59;;;;;;;;;;;6.50;63.30;;;;;;5026663;28;19921;-64
2022/03/10 09:48:25;;;;;;;;;;;6.50;62.70;;;;;;5043428;28;19916;-64
2022/03/10 09:50:51;;;;;;;;;;;6.70;61.80;;;;;;5060400;28;19920;-64
2022/03/10 09:53:18;;;;;;;;;;;6.80;62.50;;;;;;5060988;28;19909;-65
2022/03/10 09:55:44;;;;;;;;;;;6.90;61.20;;;;;;5060448;28;19987;-64
2022/03/10 09:58:10;;;;;;;;;;;7.00;61.60;;;;;;5043265;28;19909;-64
2022/03/10 10:00:35;;;;;;;;;;;7.00;60.80;;;;;;5060461;28;19912;-64
2022/03/10 10:03:01;;;;;;;;;;;7.10;60.40;;;;;;5058544;28;19920;-65
2022/03/10 10:05:28;;;;;;;;;;;7.20;59.70;;;;;;5060292;28;19916;-65
2022/03/10 10:08:17;;;;;;;;;;;7.30;60.10;;;;;;5043316;28;20265;-64
2022/03/10 10:10:47;;;;;;;;;;;7.50;59.60;;;;;;5043553;28;19909;-65
2022/03/10 10:13:33;;;;;;;;;;;7.70;58.90;;;;;;5043061;28;19916;-65
2022/03/10 10:16:13;;;;;;;;;;;7.90;57.20;;;;;;5060707;28;20200;-64
2022/03/10 10:18:39;;;;;;;;;;;8.10;56.50;;;;;;5060412;28;19916;-64
2022/03/10 10:21:05;;;;;;;;;;;8.20;56.30;;;;;;5061733;28;20162;-65
2022/03/10 10:23:32;;;;;;;;;;;8.40;55.30;;;;;;5064107;28;19913;-65
2022/03/10 10:26:02;;;;;;;;;;;8.60;54.50;;;;;;5063409;28;19916;-65
2022/03/10 10:28:35;;;;;;;;;;;8.80;54.00;;;;;;5064217;28;19955;-65
2022/03/10 10:31:02;;;;;;;;;;;9.00;53.10;;;;;;5046609;28;19912;-65
2022/03/10 10:33:29;;;;;;;;;;;9.20;51.70;;;;;;5064950;28;19931;-65
2022/03/10 10:36:31;;;;;;;;;;;9.40;51.00;;;;;;5063982;28;19958;-64
2022/03/10 10:39:04;;;;;;;;;;;9.60;50.70;;;;;;5032031;28;20112;-65
2022/03/10 10:41:30;;;;;;;;;;;9.90;50.10;;;;;;5045890;28;20158;-64
2022/03/10 10:44:01;;;;;;;;;;;10.20;49.70;;;;;;5063985;28;20235;-65
2022/03/10 10:46:39;;;;;;;;;;;10.40;49.00;;;;;;5064157;28;20038;-65
2022/03/10 10:49:10;;;;;;;;;;;10.70;47.60;;;;;;5063974;28;19916;-65
2022/03/10 10:51:37;;;;;;;;;;;10.80;48.00;;;;;;5045808;28;19908;-65
2022/03/10 10:54:28;;;;;;;;;;;11.10;46.90;;;;;;5063849;28;20196;-65
2022/03/10 10:56:55;;;;;;;;;;;11.30;45.30;;;;;;5063419;28;20135;-64
2022/03/10 10:59:37;;;;;;;;;;;11.50;45.30;;;;;;5064018;28;19947;-65
2022/03/10 11:02:06;;;;;;;;;;;11.80;44.40;;;;;;5063225;28;20081;-65
2022/03/10 11:04:32;;;;;;;;;;;12.30;43.60;;;;;;5043581;28;19980;-64
2022/03/10 11:06:57;;;;;;;;;;;12.60;42.90;;;;;;5025826;28;19916;-65
2022/03/10 11:09:24;;;;;;;;;;;12.90;42.70;;;;;;5043746;28;19925;-68
2022/03/10 11:11:51;;;;;;;;;;;13.20;42.80;;;;;;5025930;28;19909;-68
2022/03/10 11:14:16;;;;;;;;;;;13.60;42.90;;;;;;5043103;28;19917;-67
2022/03/10 11:16:42;;;;;;;;;;;13.90;40.60;;;;;;5043385;28;19955;-65
2022/03/10 11:19:08;;;;;;;;;;;14.30;38.70;;;;;;5025533;28;19917;-65
2022/03/10 11:21:53;;;;;;;;;;;14.60;38.30;;;;;;5008993;28;19979;-65
2022/03/10 11:24:37;;;;;;;;;;;15.10;37.80;;;;;;5027245;28;19951;-65
2022/03/10 11:27:09;;;;;;;;;;;15.60;36.20;;;;;;5057610;28;19963;-65
2022/03/10 11:29:34;;;;;;;;;;;16.00;33.50;;;;;;5045382;28;19920;-65
2022/03/10 11:32:00;;;;;;;;;;;16.10;32.90;;;;;;5044038;28;19908;-65
2022/03/10 11:34:55;;;;;;;;;;;16.30;32.80;;;;;;5042682;28;19909;-66
2022/03/10 11:37:39;;;;;;;;;;;16.80;30.70;;;;;;5062578;28;19959;-66
2022/03/10 11:40:06;;;;;;;;;;;18.20;30.10;;;;;;5062906;28;20154;-66
2022/03/10 11:42:32;;;;;;;;;;;19.80;28.10;;;;;;5062626;28;19915;-66
2022/03/10 11:45:11;;;;;;;;;;;20.90;26.90;;;;;;5062691;28;20139;-67
2022/03/10 11:47:38;;;;;;;;;;;22.40;25.80;;;;;;5062892;28;19909;-66
2022/03/10 11:50:25;;;;;;;;;;;23.70;24.80;;;;;;5062718;28;19917;-66
2022/03/10 11:53:01;;;;;;;;;;;24.70;24.00;;;;;;5059363;28;19913;-67
2022/03/10 11:55:50;;;;;;;;;;;24.90;23.30;;;;;;5060363;28;19916;-66
2022/03/10 11:58:17;;;;;;;;;;;24.70;23.30;;;;;;5045836;28;19913;-66
2022/03/10 12:00:51;;;;;;;;;;;25.10;23.20;;;;;;5062650;28;19983;-66
2022/03/10 12:03:27;;;;;;;;;;;26.20;22.10;;;;;;5062009;28;19931;-65
2022/03/10 12:05:57;;;;;;;;;;;26.90;21.60;;;;;;5046405;28;19917;-66
2022/03/10 12:08:24;;;;;;;;;;;26.90;21.80;;;;;;5062558;28;19917;-65
2022/03/10 12:10:50;;;;;;;;;;;27.10;21.70;;;;;;5062487;28;19913;-66
2022/03/10 12:13:39;;;;;;;;;;;27.90;21.30;;;;;;5062903;28;19915;-66
2022/03/10 12:16:05;;;;;;;;;;;28.60;20.90;;;;;;5062639;28;19913;-67
2022/03/10 12:18:38;;;;;;;;;;;29.60;21.00;;;;;;5062455;28;19916;-67
2022/03/10 12:21:15;;;;;;;;;;;30.50;20.30;;;;;;5061978;28;20009;-67
2022/03/10 12:23:53;;;;;;;;;;;31.40;20.10;;;;;;5062386;28;19913;-67
2022/03/10 12:26:32;;;;;;;;;;;31.60;19.50;;;;;;5060952;28;20104;-66
2022/03/10 12:29:00;;;;;;;;;;;31.60;19.10;;;;;;5062015;28;20011;-67
2022/03/10 12:31:28;;;;;;;;;;;31.40;19.00;;;;;;5061948;28;19912;-65
2022/03/10 12:33:54;;;;;;;;;;;30.70;19.20;;;;;;5060958;28;19909;-67
2022/03/10 12:36:39;;;;;;;;;;;30.90;19.00;;;;;;5061750;28;19913;-66
2022/03/10 12:39:12;;;;;;;;;;;31.00;18.80;;;;;;5062043;28;19912;-67
2022/03/10 12:41:42;;;;;;;;;;;31.20;18.70;;;;;;5061361;28;19917;-66
2022/03/10 12:44:11;;;;;;;;;;;30.80;18.90;;;;;;5061781;28;19908;-66
2022/03/10 12:46:37;;;;;;;;;;;30.20;18.80;;;;;;5043665;28;20218;-66
2022/03/10 12:49:21;;;;;;;;;;;30.10;19.20;;;;;;5061653;28;19916;-66
2022/03/10 12:51:47;;;;;;;;;;;30.80;19.40;;;;;;5061376;28;20192;-67
2022/03/10 12:54:13;;;;;;;;;;;32.30;18.80;;;;;;5061548;28;19963;-66
2022/03/10 12:56:49;;;;;;;;;;;33.20;18.90;;;;;;5061328;28;19928;-67
2022/03/10 12:59:44;;;;;;;;;;;34.10;18.70;;;;;;5061869;28;19975;-67
2022/03/10 13:02:18;;;;;;;;;;;34.50;18.60;;;;;;5037955;28;19909;-64
2022/03/10 13:04:55;;;;;;;;;;;35.50;18.10;;;;;;5059658;28;19908;-65
2022/03/10 13:07:21;;;;;;;;;;;34.30;17.80;;;;;;5062410;28;20263;-65
2022/03/10 13:09:58;;;;;;;;;;;33.10;18.10;;;;;;5062414;28;19932;-65
2022/03/10 13:12:27;;;;;;;;;;;32.50;18.50;;;;;;5061829;28;20158;-65
2022/03/10 13:14:53;;;;;;;;;;;32.80;18.60;;;;;;5062044;28;19913;-65
2022/03/10 13:17:34;;;;;;;;;;;33.00;17.90;;;;;;5062202;28;19916;-66
2022/03/10 13:20:00;;;;;;;;;;;33.10;17.90;;;;;;5062050;28;19909;-66
2022/03/10 13:22:26;;;;;;;;;;;33.00;17.70;;;;;;5060902;28;19951;-67
2022/03/10 13:24:52;;;;;;;;;;;32.40;18.10;;;;;;5062292;28;19909;-66
2022/03/10 13:27:20;;;;;;;;;;;32.80;18.00;;;;;;5061110;28;19952;-66
2022/03/10 13:29:48;;;;;;;;;;;33.40;17.90;;;;;;5062272;28;19909;-65
2022/03/10 13:32:24;;;;;;;;;;;33.70;17.90;;;;;;5062106;28;19909;-66
2022/03/10 13:34:50;;;;;;;;;;;33.00;18.10;;;;;;5044736;28;19913;-66
2022/03/10 13:37:16;;;;;;;;;;;33.20;17.90;;;;;;5044351;28;19913;-66
2022/03/10 13:39:43;;;;;;;;;;;33.60;18.00;;;;;;5062263;28;19909;-66
2022/03/10 13:42:29;;;;;;;;;;;33.70;18.00;;;;;;5061736;28;19916;-66
2022/03/10 13:45:02;;;;;;;;;;;33.30;18.10;;;;;;5044618;28;19908;-66
2022/03/10 13:47:27;;;;;;;;;;;33.60;17.80;;;;;;5062170;28;19932;-65
2022/03/10 13:49:57;;;;;;;;;;;32.80;18.00;;;;;;5044076;28;19920;-65
2022/03/10 13:52:22;;;;;;;;;;;33.00;17.90;;;;;;5061717;28;19940;-66
2022/03/10 13:54:54;;;;;;;;;;;33.70;17.80;;;;;;5062152;28;20215;-66
2022/03/10 13:57:20;;;;;;;;;;;33.20;17.80;;;;;;5065256;28;19979;-66
2022/03/10 13:59:47;;;;;;;;;;;34.30;17.60;;;;;;5066049;28;19909;-65
2022/03/10 14:02:25;;;;;;;;;;;34.50;16.80;;;;;;5065517;28;19954;-66
2022/03/10 14:04:52;;;;;;;;;;;34.10;16.70;;;;;;5065780;28;19917;-66
2022/03/10 14:07:18;;;;;;;;;;;33.40;16.60;;;;;;5065642;28;19913;-66
2022/03/10 14:09:44;;;;;;;;;;;33.20;16.90;;;;;;5065481;28;19936;-66
2022/03/10 14:12:20;;;;;;;;;;;32.60;16.60;;;;;;5065313;28;19975;-66
2022/03/10 14:14:47;;;;;;;;;;;31.60;17.00;;;;;;5064534;28;20114;-66
2022/03/10 14:17:13;;;;;;;;;;;31.50;17.30;;;;;;5065291;28;19999;-66
2022/03/10 14:19:39;;;;;;;;;;;32.50;17.30;;;;;;5064465;28;20151;-65
2022/03/10 14:22:18;;;;;;;;;;;32.10;17.50;;;;;;5065400;28;19975;-65
2022/03/10 14:24:50;;;;;;;;;;;32.30;17.60;;;;;;5065603;28;19959;-66
2022/03/10 14:27:16;;;;;;;;;;;31.90;17.90;;;;;;5063413;28;19908;-66
2022/03/10 14:29:43;;;;;;;;;;;32.50;17.50;;;;;;5065214;28;20235;-65